sensor_id;sensor_type;location;lat;lon;timestamp;pressure;altitude;pressure_sealevel;temperature;humidity
6032;BME280;3044;43.232;27.972;2022-10-16T00:01:33;45151.91;;;-143.84;76.06
6032;BME280;3044;43.232;27.972;2022-10-16T00:04:02;45150.00;;;-143.84;76.15
6032;BME280;3044;43.232;27.972;2022-10-16T00:06:30;45178.56;;;-143.84;75.83
6032;BME280;3044;43.232;27.972;2022-10-16T00:08:58;45169.03;;;-143.84;75.95
6032;BME280;3044;43.232;27.972;2022-10-16T00:11:27;45146.19;;;-143.84;76.00
6032;BME280;3044;43.232;27.972;2022-10-16T00:13:56;45148.09;;;-143.84;76.06
6032;BME280;3044;43.232;27.972;2022-10-16T00:16:24;45136.66;;;-143.84;76.01
6032;BME280;3044;43.232;27.972;2022-10-16T00:18:51;45138.56;;;-143.84;76.09
6032;BME280;3044;43.232;27.972;2022-10-16T00:21:22;45174.75;;;-143.84;75.76
6032;BME280;3044;43.232;27.972;2022-10-16T00:23:50;45146.19;;;-143.84;76.21
6032;BME280;3044;43.232;27.972;2022-10-16T00:26:18;45163.31;;;-143.84;75.89
6032;BME280;3044;43.232;27.972;2022-10-16T00:28:46;45142.38;;;-143.84;75.91
6032;BME280;3044;43.232;27.972;2022-10-16T00:31:13;45157.59;;;-143.84;76.09
6032;BME280;3044;43.232;27.972;2022-10-16T00:33:41;45129.03;;;-143.84;75.64
6032;BME280;3044;43.232;27.972;2022-10-16T00:36:11;45163.31;;;-143.84;75.56
6032;BME280;3044;43.232;27.972;2022-10-16T00:38:40;45165.22;;;-143.84;75.68
6032;BME280;3044;43.232;27.972;2022-10-16T00:41:11;45148.09;;;-143.84;75.32
6032;BME280;3044;43.232;27.972;2022-10-16T00:43:41;45180.47;;;-143.84;75.67
6032;BME280;3044;43.232;27.972;2022-10-16T00:46:20;45138.56;;;-143.84;75.24
6032;BME280;3044;43.232;27.972;2022-10-16T00:48:51;45161.41;;;-143.84;75.24
6032;BME280;3044;43.232;27.972;2022-10-16T00:51:23;45167.13;;;-143.84;75.28
6032;BME280;3044;43.232;27.972;2022-10-16T00:53:55;45174.75;;;-143.84;75.35
6032;BME280;3044;43.232;27.972;2022-10-16T00:56:22;45142.38;;;-143.84;75.39
6032;BME280;3044;43.232;27.972;2022-10-16T00:58:49;45151.91;;;-143.84;75.32
6032;BME280;3044;43.232;27.972;2022-10-16T01:01:17;45159.50;;;-143.84;75.32
6032;BME280;3044;43.232;27.972;2022-10-16T01:03:44;45151.91;;;-143.84;75.60
6032;BME280;3044;43.232;27.972;2022-10-16T01:06:28;45155.69;;;-143.84;75.52
6032;BME280;3044;43.232;27.972;2022-10-16T01:09:11;45159.50;;;-143.84;75.63
6032;BME280;3044;43.232;27.972;2022-10-16T01:11:45;45151.91;;;-143.84;75.38
6032;BME280;3044;43.232;27.972;2022-10-16T01:14:21;45150.00;;;-143.84;75.17
6032;BME280;3044;43.232;27.972;2022-10-16T01:16:53;45157.59;;;-143.84;75.62
6032;BME280;3044;43.232;27.972;2022-10-16T01:19:36;45146.19;;;-143.84;75.33
6032;BME280;3044;43.232;27.972;2022-10-16T01:22:08;45155.69;;;-143.84;75.47
6032;BME280;3044;43.232;27.972;2022-10-16T01:24:40;45159.50;;;-143.84;75.44
6032;BME280;3044;43.232;27.972;2022-10-16T01:27:12;45163.31;;;-143.84;75.38
6032;BME280;3044;43.232;27.972;2022-10-16T01:29:47;45134.75;;;-143.84;75.49
6032;BME280;3044;43.232;27.972;2022-10-16T01:32:19;45189.97;;;-143.84;75.29
6032;BME280;3044;43.232;27.972;2022-10-16T01:34:50;45138.56;;;-143.84;75.24
6032;BME280;3044;43.232;27.972;2022-10-16T01:37:32;45172.84;;;-143.84;75.07
6032;BME280;3044;43.232;27.972;2022-10-16T01:40:05;45155.69;;;-143.84;74.90
6032;BME280;3044;43.232;27.972;2022-10-16T01:42:38;45146.19;;;-143.84;74.45
6032;BME280;3044;43.232;27.972;2022-10-16T01:45:06;45170.94;;;-143.84;74.27
6032;BME280;3044;43.232;27.972;2022-10-16T01:47:37;45134.75;;;-143.84;74.24
6032;BME280;3044;43.232;27.972;2022-10-16T01:50:08;45148.09;;;-143.84;74.08
6032;BME280;3044;43.232;27.972;2022-10-16T01:52:37;45201.41;;;-143.84;74.23
6032;BME280;3044;43.232;27.972;2022-10-16T01:55:08;45130.94;;;-143.84;74.59
6032;BME280;3044;43.232;27.972;2022-10-16T01:57:40;45161.41;;;-143.84;74.84
6032;BME280;3044;43.232;27.972;2022-10-16T02:00:12;45138.56;;;-143.84;75.27
6032;BME280;3044;43.232;27.972;2022-10-16T02:02:43;45174.75;;;-143.84;75.69
6032;BME280;3044;43.232;27.972;2022-10-16T02:05:16;45148.09;;;-143.84;75.64
6032;BME280;3044;43.232;27.972;2022-10-16T02:07:47;45174.75;;;-143.84;75.72
6032;BME280;3044;43.232;27.972;2022-10-16T02:10:14;45134.75;;;-143.84;75.62
6032;BME280;3044;43.232;27.972;2022-10-16T02:12:46;45136.66;;;-143.84;75.57
6032;BME280;3044;43.232;27.972;2022-10-16T02:15:16;45176.66;;;-143.84;75.38
6032;BME280;3044;43.232;27.972;2022-10-16T02:17:43;45144.28;;;-143.84;75.17
6032;BME280;3044;43.232;27.972;2022-10-16T02:20:11;45163.31;;;-143.84;74.72
6032;BME280;3044;43.232;27.972;2022-10-16T02:22:40;45153.81;;;-143.84;74.49
6032;BME280;3044;43.232;27.972;2022-10-16T02:25:10;45148.09;;;-143.84;74.05
6032;BME280;3044;43.232;27.972;2022-10-16T02:27:47;45159.50;;;-143.84;73.84
6032;BME280;3044;43.232;27.972;2022-10-16T02:30:21;45163.31;;;-143.84;73.67
6032;BME280;3044;43.232;27.972;2022-10-16T02:32:51;45169.03;;;-143.84;73.19
6032;BME280;3044;43.232;27.972;2022-10-16T02:35:21;45167.13;;;-143.84;73.06
6032;BME280;3044;43.232;27.972;2022-10-16T02:37:50;45178.56;;;-143.84;72.59
6032;BME280;3044;43.232;27.972;2022-10-16T02:40:18;45165.22;;;-143.84;72.13
6032;BME280;3044;43.232;27.972;2022-10-16T02:42:52;45151.91;;;-143.84;71.68
6032;BME280;3044;43.232;27.972;2022-10-16T02:45:20;45172.84;;;-143.84;71.56
6032;BME280;3044;43.232;27.972;2022-10-16T02:47:48;45151.91;;;-143.84;71.35
6032;BME280;3044;43.232;27.972;2022-10-16T02:50:15;45155.69;;;-143.84;71.02
6032;BME280;3044;43.232;27.972;2022-10-16T02:52:43;45172.84;;;-143.84;71.12
6032;BME280;3044;43.232;27.972;2022-10-16T02:55:10;45157.59;;;-143.84;70.90
6032;BME280;3044;43.232;27.972;2022-10-16T02:57:37;45155.69;;;-143.84;70.96
6032;BME280;3044;43.232;27.972;2022-10-16T03:00:09;45153.81;;;-143.84;70.92
6032;BME280;3044;43.232;27.972;2022-10-16T03:02:38;45167.13;;;-143.84;71.40
6032;BME280;3044;43.232;27.972;2022-10-16T03:05:06;45165.22;;;-143.84;71.78
6032;BME280;3044;43.232;27.972;2022-10-16T03:07:34;45159.50;;;-143.84;72.30
6032;BME280;3044;43.232;27.972;2022-10-16T03:10:01;45170.94;;;-143.84;72.45
6032;BME280;3044;43.232;27.972;2022-10-16T03:12:28;45178.56;;;-143.84;72.82
6032;BME280;3044;43.232;27.972;2022-10-16T03:14:56;45169.03;;;-143.84;73.19
6032;BME280;3044;43.232;27.972;2022-10-16T03:17:25;45153.81;;;-143.84;73.17
6032;BME280;3044;43.232;27.972;2022-10-16T03:19:52;45178.56;;;-143.84;73.70
6032;BME280;3044;43.232;27.972;2022-10-16T03:22:19;45165.22;;;-143.84;73.98
6032;BME280;3044;43.232;27.972;2022-10-16T03:24:46;45191.88;;;-143.84;74.00
6032;BME280;3044;43.232;27.972;2022-10-16T03:27:14;45167.13;;;-143.84;74.38
6032;BME280;3044;43.232;27.972;2022-10-16T03:29:41;45174.75;;;-143.84;74.55
6032;BME280;3044;43.232;27.972;2022-10-16T03:32:09;45165.22;;;-143.84;74.37
6032;BME280;3044;43.232;27.972;2022-10-16T03:34:37;45184.25;;;-143.84;74.52
6032;BME280;3044;43.232;27.972;2022-10-16T03:37:04;45165.22;;;-143.84;74.68
6032;BME280;3044;43.232;27.972;2022-10-16T03:39:32;45148.09;;;-143.84;74.53
6032;BME280;3044;43.232;27.972;2022-10-16T03:41:59;45180.47;;;-143.84;74.61
6032;BME280;3044;43.232;27.972;2022-10-16T03:44:26;45180.47;;;-143.84;74.77
6032;BME280;3044;43.232;27.972;2022-10-16T03:46:53;45142.38;;;-143.84;74.55
6032;BME280;3044;43.232;27.972;2022-10-16T03:49:20;45155.69;;;-143.84;74.63
6032;BME280;3044;43.232;27.972;2022-10-16T03:51:49;45167.13;;;-143.84;74.78
6032;BME280;3044;43.232;27.972;2022-10-16T03:54:16;45188.06;;;-143.84;74.68
6032;BME280;3044;43.232;27.972;2022-10-16T03:56:43;45226.16;;;-143.84;75.09
6032;BME280;3044;43.232;27.972;2022-10-16T03:59:11;45174.75;;;-143.84;75.04
6032;BME280;3044;43.232;27.972;2022-10-16T04:01:38;45167.13;;;-143.84;75.37
6032;BME280;3044;43.232;27.972;2022-10-16T04:04:05;45172.84;;;-143.84;75.24
6032;BME280;3044;43.232;27.972;2022-10-16T04:06:32;45197.59;;;-143.84;75.19
6032;BME280;3044;43.232;27.972;2022-10-16T04:09:01;45163.31;;;-143.84;75.50
6032;BME280;3044;43.232;27.972;2022-10-16T04:11:28;45169.03;;;-143.84;75.90
6032;BME280;3044;43.232;27.972;2022-10-16T04:13:55;45184.25;;;-143.84;76.02
6032;BME280;3044;43.232;27.972;2022-10-16T04:16:22;45189.97;;;-143.84;75.71
6032;BME280;3044;43.232;27.972;2022-10-16T04:18:49;45189.97;;;-143.84;76.18
6032;BME280;3044;43.232;27.972;2022-10-16T04:21:16;45167.13;;;-143.84;75.46
6032;BME280;3044;43.232;27.972;2022-10-16T04:23:44;45153.81;;;-143.84;74.75
6032;BME280;3044;43.232;27.972;2022-10-16T04:26:12;45186.16;;;-143.84;74.96
6032;BME280;3044;43.232;27.972;2022-10-16T04:28:40;45184.25;;;-143.84;74.96
6032;BME280;3044;43.232;27.972;2022-10-16T04:31:07;45176.66;;;-143.84;75.58
6032;BME280;3044;43.232;27.972;2022-10-16T04:33:34;45176.66;;;-143.84;75.03
6032;BME280;3044;43.232;27.972;2022-10-16T04:36:02;45188.06;;;-143.84;75.27
6032;BME280;3044;43.232;27.972;2022-10-16T04:38:30;45153.81;;;-143.84;75.23
6032;BME280;3044;43.232;27.972;2022-10-16T04:40:57;45146.19;;;-143.84;75.17
6032;BME280;3044;43.232;27.972;2022-10-16T04:43:26;45186.16;;;-143.84;75.53
6032;BME280;3044;43.232;27.972;2022-10-16T04:45:53;45161.41;;;-143.84;75.61
6032;BME280;3044;43.232;27.972;2022-10-16T04:48:22;45174.75;;;-143.84;75.86
6032;BME280;3044;43.232;27.972;2022-10-16T04:50:49;45159.50;;;-143.84;76.09
6032;BME280;3044;43.232;27.972;2022-10-16T04:53:16;45165.22;;;-143.84;75.95
6032;BME280;3044;43.232;27.972;2022-10-16T04:55:43;45176.66;;;-143.84;76.07
6032;BME280;3044;43.232;27.972;2022-10-16T04:58:11;45174.75;;;-143.84;76.03
6032;BME280;3044;43.232;27.972;2022-10-16T05:00:39;45199.50;;;-143.84;76.21
6032;BME280;3044;43.232;27.972;2022-10-16T05:03:09;45188.06;;;-143.84;76.13
6032;BME280;3044;43.232;27.972;2022-10-16T05:05:43;45146.19;;;-143.84;76.03
6032;BME280;3044;43.232;27.972;2022-10-16T05:08:14;45189.97;;;-143.84;75.69
6032;BME280;3044;43.232;27.972;2022-10-16T05:10:46;45167.13;;;-143.84;75.86
6032;BME280;3044;43.232;27.972;2022-10-16T05:13:16;45178.56;;;-143.84;75.27
6032;BME280;3044;43.232;27.972;2022-10-16T05:15:50;45172.84;;;-143.84;75.08
6032;BME280;3044;43.232;27.972;2022-10-16T05:18:22;45167.13;;;-143.84;74.90
6032;BME280;3044;43.232;27.972;2022-10-16T05:20:54;45155.69;;;-143.84;74.61
6032;BME280;3044;43.232;27.972;2022-10-16T05:23:26;45174.75;;;-143.84;73.57
6032;BME280;3044;43.232;27.972;2022-10-16T05:26:00;45159.50;;;-143.84;73.23
6032;BME280;3044;43.232;27.972;2022-10-16T05:28:30;45172.84;;;-143.84;72.33
6032;BME280;3044;43.232;27.972;2022-10-16T05:31:04;45144.28;;;-143.84;71.42
6032;BME280;3044;43.232;27.972;2022-10-16T05:33:31;45163.31;;;-143.84;70.26
6032;BME280;3044;43.232;27.972;2022-10-16T05:36:01;45178.56;;;-143.84;69.60
6032;BME280;3044;43.232;27.972;2022-10-16T05:38:28;45142.38;;;-143.84;68.54
6032;BME280;3044;43.232;27.972;2022-10-16T05:40:55;45155.69;;;-143.84;67.51
6032;BME280;3044;43.232;27.972;2022-10-16T05:43:23;45159.50;;;-143.84;66.47
6032;BME280;3044;43.232;27.972;2022-10-16T05:45:55;45130.94;;;-143.84;65.50
6032;BME280;3044;43.232;27.972;2022-10-16T05:48:24;45136.66;;;-143.84;64.74
6032;BME280;3044;43.232;27.972;2022-10-16T05:50:58;45129.03;;;-143.84;63.78
6032;BME280;3044;43.232;27.972;2022-10-16T05:53:27;45153.81;;;-143.84;62.64
6032;BME280;3044;43.232;27.972;2022-10-16T05:55:55;45150.00;;;-143.84;62.19
6032;BME280;3044;43.232;27.972;2022-10-16T05:58:23;45144.28;;;-143.84;61.01
6032;BME280;3044;43.232;27.972;2022-10-16T06:00:54;45159.50;;;-143.84;60.38
6032;BME280;3044;43.232;27.972;2022-10-16T06:03:23;45111.91;;;-143.84;59.27
6032;BME280;3044;43.232;27.972;2022-10-16T06:05:51;45136.66;;;-143.84;58.91
6032;BME280;3044;43.232;27.972;2022-10-16T06:08:18;45117.63;;;-143.84;58.51
6032;BME280;3044;43.232;27.972;2022-10-16T06:10:47;45140.47;;;-143.84;57.51
6032;BME280;3044;43.232;27.972;2022-10-16T06:13:15;45140.47;;;-143.84;57.05
6032;BME280;3044;43.232;27.972;2022-10-16T06:15:42;45132.84;;;-143.84;56.61
6032;BME280;3044;43.232;27.972;2022-10-16T06:18:10;45151.91;;;-143.84;55.83
6032;BME280;3044;43.232;27.972;2022-10-16T06:20:38;45136.66;;;-143.84;55.29
6032;BME280;3044;43.232;27.972;2022-10-16T06:23:05;45132.84;;;-143.84;55.41
6032;BME280;3044;43.232;27.972;2022-10-16T06:25:32;45115.72;;;-143.84;54.21
6032;BME280;3044;43.232;27.972;2022-10-16T06:27:59;45129.03;;;-143.84;53.98
6032;BME280;3044;43.232;27.972;2022-10-16T06:30:27;45110.00;;;-143.84;53.65
6032;BME280;3044;43.232;27.972;2022-10-16T06:32:54;45102.38;;;-143.84;53.66
6032;BME280;3044;43.232;27.972;2022-10-16T06:35:21;45121.44;;;-143.84;53.04
6032;BME280;3044;43.232;27.972;2022-10-16T06:37:52;45117.63;;;-143.84;52.38
6032;BME280;3044;43.232;27.972;2022-10-16T06:40:20;45117.63;;;-143.84;52.51
6032;BME280;3044;43.232;27.972;2022-10-16T06:42:47;45144.28;;;-143.84;51.67
6032;BME280;3044;43.232;27.972;2022-10-16T06:45:14;45090.97;;;-143.84;51.90
6032;BME280;3044;43.232;27.972;2022-10-16T06:47:41;45104.28;;;-143.84;52.26
6032;BME280;3044;43.232;27.972;2022-10-16T06:50:08;45094.78;;;-143.84;51.65
6032;BME280;3044;43.232;27.972;2022-10-16T06:52:36;45146.19;;;-143.84;49.93
6032;BME280;3044;43.232;27.972;2022-10-16T06:55:05;45096.66;;;-143.84;50.46
6032;BME280;3044;43.232;27.972;2022-10-16T06:57:32;45108.09;;;-143.84;49.81
6032;BME280;3044;43.232;27.972;2022-10-16T06:59:59;45106.19;;;-143.84;49.69
6032;BME280;3044;43.232;27.972;2022-10-16T07:02:27;45111.91;;;-143.84;49.39
6032;BME280;3044;43.232;27.972;2022-10-16T07:04:54;45136.66;;;-143.84;47.38
6032;BME280;3044;43.232;27.972;2022-10-16T07:07:22;45104.28;;;-143.84;46.60
6032;BME280;3044;43.232;27.972;2022-10-16T07:09:50;45113.81;;;-143.84;47.03
6032;BME280;3044;43.232;27.972;2022-10-16T07:12:18;45117.63;;;-143.84;46.51
6032;BME280;3044;43.232;27.972;2022-10-16T07:14:45;45111.91;;;-143.84;46.50
6032;BME280;3044;43.232;27.972;2022-10-16T07:17:13;45089.06;;;-143.84;46.50
6032;BME280;3044;43.232;27.972;2022-10-16T07:19:40;45102.38;;;-143.84;45.61
6032;BME280;3044;43.232;27.972;2022-10-16T07:22:07;45087.16;;;-143.84;46.29
6032;BME280;3044;43.232;27.972;2022-10-16T07:24:34;45090.97;;;-143.84;46.21
6032;BME280;3044;43.232;27.972;2022-10-16T07:27:01;45081.44;;;-143.84;44.92
6032;BME280;3044;43.232;27.972;2022-10-16T07:29:30;45073.81;;;-143.84;44.85
6032;BME280;3044;43.232;27.972;2022-10-16T07:31:57;45098.56;;;-143.84;43.19
6032;BME280;3044;43.232;27.972;2022-10-16T07:34:24;45083.34;;;-143.84;43.70
6032;BME280;3044;43.232;27.972;2022-10-16T07:36:52;45085.25;;;-143.84;43.75
6032;BME280;3044;43.232;27.972;2022-10-16T07:39:22;45077.63;;;-143.84;42.88
6032;BME280;3044;43.232;27.972;2022-10-16T07:41:49;45083.34;;;-143.84;42.93
6032;BME280;3044;43.232;27.972;2022-10-16T07:44:16;45111.91;;;-143.84;41.43
6032;BME280;3044;43.232;27.972;2022-10-16T07:46:44;45081.44;;;-143.84;41.66
6032;BME280;3044;43.232;27.972;2022-10-16T07:49:11;45077.63;;;-143.84;41.05
6032;BME280;3044;43.232;27.972;2022-10-16T07:51:38;45081.44;;;-143.84;41.03
6032;BME280;3044;43.232;27.972;2022-10-16T07:54:07;45049.06;;;-143.84;41.40
6032;BME280;3044;43.232;27.972;2022-10-16T07:56:34;45089.06;;;-143.84;40.17
6032;BME280;3044;43.232;27.972;2022-10-16T07:59:02;45077.63;;;-143.84;39.64
6032;BME280;3044;43.232;27.972;2022-10-16T08:01:29;45068.13;;;-143.84;39.69
6032;BME280;3044;43.232;27.972;2022-10-16T08:03:59;45077.63;;;-143.84;39.26
6032;BME280;3044;43.232;27.972;2022-10-16T08:06:27;45083.34;;;-143.84;37.89
6032;BME280;3044;43.232;27.972;2022-10-16T08:08:55;45033.84;;;-143.84;37.98
6032;BME280;3044;43.232;27.972;2022-10-16T08:11:23;45041.44;;;-143.84;38.50
6032;BME280;3044;43.232;27.972;2022-10-16T08:13:50;45054.78;;;-143.84;38.89
6032;BME280;3044;43.232;27.972;2022-10-16T08:16:17;45060.50;;;-143.84;38.14
6032;BME280;3044;43.232;27.972;2022-10-16T08:18:44;45085.25;;;-143.84;37.44
6032;BME280;3044;43.232;27.972;2022-10-16T08:21:18;45070.00;;;-143.84;38.90
6032;BME280;3044;43.232;27.972;2022-10-16T08:23:46;45047.16;;;-143.84;37.79
6032;BME280;3044;43.232;27.972;2022-10-16T08:26:13;45073.81;;;-143.84;37.78
6032;BME280;3044;43.232;27.972;2022-10-16T08:28:40;45070.00;;;-143.84;37.48
6032;BME280;3044;43.232;27.972;2022-10-16T08:31:09;45075.72;;;-143.84;37.29
6032;BME280;3044;43.232;27.972;2022-10-16T08:33:36;45064.31;;;-143.84;37.62
6032;BME280;3044;43.232;27.972;2022-10-16T08:36:04;45062.41;;;-143.84;36.82
6032;BME280;3044;43.232;27.972;2022-10-16T08:38:33;45047.16;;;-143.84;37.55
6032;BME280;3044;43.232;27.972;2022-10-16T08:41:19;45052.88;;;-143.84;37.23
6032;BME280;3044;43.232;27.972;2022-10-16T08:44:15;45075.72;;;-143.84;37.23
6032;BME280;3044;43.232;27.972;2022-10-16T08:46:53;45056.69;;;-143.84;37.91
6032;BME280;3044;43.232;27.972;2022-10-16T08:49:22;45056.69;;;-143.84;37.13
6032;BME280;3044;43.232;27.972;2022-10-16T08:51:50;45047.16;;;-143.84;36.03
6032;BME280;3044;43.232;27.972;2022-10-16T08:54:28;45075.72;;;-143.84;36.19
6032;BME280;3044;43.232;27.972;2022-10-16T08:56:56;45062.41;;;-143.84;36.57
6032;BME280;3044;43.232;27.972;2022-10-16T08:59:23;45035.75;;;-143.84;36.28
6032;BME280;3044;43.232;27.972;2022-10-16T09:01:51;45028.13;;;-143.84;36.24
6032;BME280;3044;43.232;27.972;2022-10-16T09:04:48;45058.59;;;-143.84;35.78
6032;BME280;3044;43.232;27.972;2022-10-16T09:07:24;45047.16;;;-143.84;36.25
6032;BME280;3044;43.232;27.972;2022-10-16T09:10:10;45075.72;;;-143.84;35.42
6032;BME280;3044;43.232;27.972;2022-10-16T09:12:46;45033.84;;;-143.84;34.97
6032;BME280;3044;43.232;27.972;2022-10-16T09:15:24;45045.25;;;-143.84;35.48
6032;BME280;3044;43.232;27.972;2022-10-16T09:17:59;45016.69;;;-143.84;35.89
6032;BME280;3044;43.232;27.972;2022-10-16T09:20:32;45039.53;;;-143.84;35.56
6032;BME280;3044;43.232;27.972;2022-10-16T09:23:12;45026.22;;;-143.84;35.30
6032;BME280;3044;43.232;27.972;2022-10-16T09:25:45;45026.22;;;-143.84;34.34
6032;BME280;3044;43.232;27.972;2022-10-16T09:28:13;45050.97;;;-143.84;34.91
6032;BME280;3044;43.232;27.972;2022-10-16T09:30:40;45054.78;;;-143.84;35.38
6032;BME280;3044;43.232;27.972;2022-10-16T09:33:09;45037.66;;;-143.84;35.29
6032;BME280;3044;43.232;27.972;2022-10-16T09:35:38;45045.25;;;-143.84;35.03
6032;BME280;3044;43.232;27.972;2022-10-16T09:38:06;45033.84;;;-143.84;34.80
6032;BME280;3044;43.232;27.972;2022-10-16T09:40:37;45043.34;;;-143.84;34.52
6032;BME280;3044;43.232;27.972;2022-10-16T09:43:20;45060.50;;;-143.84;34.93
6032;BME280;3044;43.232;27.972;2022-10-16T09:45:57;45050.97;;;-143.84;35.10
6032;BME280;3044;43.232;27.972;2022-10-16T09:48:35;45064.31;;;-143.84;35.44
6032;BME280;3044;43.232;27.972;2022-10-16T09:51:06;45060.50;;;-143.84;36.00
6032;BME280;3044;43.232;27.972;2022-10-16T09:53:44;45043.34;;;-143.84;36.05
6032;BME280;3044;43.232;27.972;2022-10-16T09:56:20;45050.97;;;-143.84;35.88
6032;BME280;3044;43.232;27.972;2022-10-16T09:58:52;45052.88;;;-143.84;35.13
6032;BME280;3044;43.232;27.972;2022-10-16T10:01:20;45056.69;;;-143.84;36.06
6032;BME280;3044;43.232;27.972;2022-10-16T10:03:49;45070.00;;;-143.84;36.41
6032;BME280;3044;43.232;27.972;2022-10-16T10:06:24;45024.31;;;-143.84;35.69
6032;BME280;3044;43.232;27.972;2022-10-16T10:08:56;45062.41;;;-143.84;36.15
6032;BME280;3044;43.232;27.972;2022-10-16T10:11:46;45037.66;;;-143.84;35.88
6032;BME280;3044;43.232;27.972;2022-10-16T10:14:37;45064.31;;;-143.84;36.44
6032;BME280;3044;43.232;27.972;2022-10-16T10:17:12;45033.84;;;-143.84;36.81
6032;BME280;3044;43.232;27.972;2022-10-16T10:19:44;45062.41;;;-143.84;35.96
6032;BME280;3044;43.232;27.972;2022-10-16T10:22:26;45050.97;;;-143.84;36.63
6032;BME280;3044;43.232;27.972;2022-10-16T10:27:52;45049.06;;;-143.84;36.99
6032;BME280;3044;43.232;27.972;2022-10-16T10:30:27;45035.75;;;-143.84;36.87
6032;BME280;3044;43.232;27.972;2022-10-16T10:33:09;45035.75;;;-143.84;36.19
6032;BME280;3044;43.232;27.972;2022-10-16T10:35:44;45064.31;;;-143.84;36.76
6032;BME280;3044;43.232;27.972;2022-10-16T10:38:30;45045.25;;;-143.84;38.04
6032;BME280;3044;43.232;27.972;2022-10-16T10:41:10;45049.06;;;-143.84;37.16
6032;BME280;3044;43.232;27.972;2022-10-16T10:43:51;45062.41;;;-143.84;36.69
6032;BME280;3044;43.232;27.972;2022-10-16T10:46:32;45064.31;;;-143.84;36.98
6032;BME280;3044;43.232;27.972;2022-10-16T10:49:15;45073.81;;;-143.84;37.09
6032;BME280;3044;43.232;27.972;2022-10-16T10:51:52;45066.22;;;-143.84;38.10
6032;BME280;3044;43.232;27.972;2022-10-16T10:54:28;45060.50;;;-143.84;37.94
6032;BME280;3044;43.232;27.972;2022-10-16T10:56:59;45064.31;;;-143.84;37.53
6032;BME280;3044;43.232;27.972;2022-10-16T10:59:43;45064.31;;;-143.84;38.86
6032;BME280;3044;43.232;27.972;2022-10-16T11:02:23;45056.69;;;-143.84;36.90
6032;BME280;3044;43.232;27.972;2022-10-16T11:05:16;45066.22;;;-143.84;38.03
6032;BME280;3044;43.232;27.972;2022-10-16T11:07:48;45052.88;;;-143.84;37.64
6032;BME280;3044;43.232;27.972;2022-10-16T11:10:20;45056.69;;;-143.84;37.50
6032;BME280;3044;43.232;27.972;2022-10-16T11:12:52;45070.00;;;-143.84;37.41
6032;BME280;3044;43.232;27.972;2022-10-16T11:15:25;45064.31;;;-143.84;37.62
6032;BME280;3044;43.232;27.972;2022-10-16T11:17:59;45079.53;;;-143.84;37.70
6032;BME280;3044;43.232;27.972;2022-10-16T11:20:32;45090.97;;;-143.84;36.84
6032;BME280;3044;43.232;27.972;2022-10-16T11:23:06;45049.06;;;-143.84;37.56
6032;BME280;3044;43.232;27.972;2022-10-16T11:25:36;45056.69;;;-143.84;38.18
6032;BME280;3044;43.232;27.972;2022-10-16T11:28:07;45052.88;;;-143.84;38.25
6032;BME280;3044;43.232;27.972;2022-10-16T11:30:43;45070.00;;;-143.84;38.24
6032;BME280;3044;43.232;27.972;2022-10-16T11:33:25;45062.41;;;-143.84;38.24
6032;BME280;3044;43.232;27.972;2022-10-16T11:36:00;45049.06;;;-143.84;37.22
6032;BME280;3044;43.232;27.972;2022-10-16T11:38:34;45066.22;;;-143.84;37.04
6032;BME280;3044;43.232;27.972;2022-10-16T11:41:12;45049.06;;;-143.84;36.44
6032;BME280;3044;43.232;27.972;2022-10-16T11:43:48;45047.16;;;-143.84;37.05
6032;BME280;3044;43.232;27.972;2022-10-16T11:46:20;45079.53;;;-143.84;36.69
6032;BME280;3044;43.232;27.972;2022-10-16T11:48:55;45068.13;;;-143.84;36.34
6032;BME280;3044;43.232;27.972;2022-10-16T11:51:31;45068.13;;;-143.84;36.87
6032;BME280;3044;43.232;27.972;2022-10-16T11:54:07;45070.00;;;-143.84;37.56
6032;BME280;3044;43.232;27.972;2022-10-16T11:56:38;45056.69;;;-143.84;37.70
6032;BME280;3044;43.232;27.972;2022-10-16T11:59:10;45070.00;;;-143.84;37.62
6032;BME280;3044;43.232;27.972;2022-10-16T12:01:45;45056.69;;;-143.84;38.29
6032;BME280;3044;43.232;27.972;2022-10-16T12:04:22;45068.13;;;-143.84;37.56
6032;BME280;3044;43.232;27.972;2022-10-16T12:06:58;45024.31;;;-143.84;36.89
6032;BME280;3044;43.232;27.972;2022-10-16T12:09:28;45066.22;;;-143.84;36.55
6032;BME280;3044;43.232;27.972;2022-10-16T12:11:56;45052.88;;;-143.84;38.36
6032;BME280;3044;43.232;27.972;2022-10-16T12:14:38;45058.59;;;-143.84;38.05
6032;BME280;3044;43.232;27.972;2022-10-16T12:17:24;45062.41;;;-143.84;36.83
6032;BME280;3044;43.232;27.972;2022-10-16T12:20:12;45068.13;;;-143.84;36.72
6032;BME280;3044;43.232;27.972;2022-10-16T12:22:48;45035.75;;;-143.84;37.47
6032;BME280;3044;43.232;27.972;2022-10-16T12:25:27;45071.91;;;-143.84;37.44
6032;BME280;3044;43.232;27.972;2022-10-16T12:27:58;45075.72;;;-143.84;38.07
6032;BME280;3044;43.232;27.972;2022-10-16T12:30:36;45039.53;;;-143.84;37.65
6032;BME280;3044;43.232;27.972;2022-10-16T12:33:05;45049.06;;;-143.84;36.94
6032;BME280;3044;43.232;27.972;2022-10-16T12:35:42;45062.41;;;-143.84;36.72
6032;BME280;3044;43.232;27.972;2022-10-16T12:38:17;45066.22;;;-143.84;37.72
6032;BME280;3044;43.232;27.972;2022-10-16T12:40:47;45066.22;;;-143.84;37.45
6032;BME280;3044;43.232;27.972;2022-10-16T12:43:27;45085.25;;;-143.84;37.84
6032;BME280;3044;43.232;27.972;2022-10-16T12:46:03;45087.16;;;-143.84;36.69
6032;BME280;3044;43.232;27.972;2022-10-16T12:48:31;45049.06;;;-143.84;37.45
6032;BME280;3044;43.232;27.972;2022-10-16T12:51:11;45054.78;;;-143.84;37.05
6032;BME280;3044;43.232;27.972;2022-10-16T12:53:38;45087.16;;;-143.84;36.59
6032;BME280;3044;43.232;27.972;2022-10-16T12:56:16;45058.59;;;-143.84;38.35
6032;BME280;3044;43.232;27.972;2022-10-16T12:59:00;45062.41;;;-143.84;37.15
6032;BME280;3044;43.232;27.972;2022-10-16T13:01:41;45049.06;;;-143.84;37.80
6032;BME280;3044;43.232;27.972;2022-10-16T13:04:30;45064.31;;;-143.84;37.64
6032;BME280;3044;43.232;27.972;2022-10-16T13:07:18;45075.72;;;-143.84;37.57
6032;BME280;3044;43.232;27.972;2022-10-16T13:09:58;45041.44;;;-143.84;37.93
6032;BME280;3044;43.232;27.972;2022-10-16T13:13:02;45064.31;;;-143.84;37.95
6032;BME280;3044;43.232;27.972;2022-10-16T13:15:52;45070.00;;;-143.84;38.38